createdAt,value
2019-01-23T00:00:48.557Z,47.55
2019-01-23T00:03:15.880Z,46.15
2019-01-23T00:05:43.187Z,44.40
2019-01-23T00:08:10.478Z,42.83
2019-01-23T00:10:37.791Z,44.18
2019-01-23T00:13:05.085Z,43.45
2019-01-23T00:15:32.414Z,45.83
2019-01-23T00:17:59.710Z,48.40
2019-01-23T00:20:27.001Z,44.65
2019-01-23T00:22:54.341Z,47.33
2019-01-23T00:25:21.626Z,43.58
2019-01-23T00:27:48.951Z,44.70
2019-01-23T00:30:16.247Z,43.08
2019-01-23T00:32:43.571Z,45.63
2019-01-23T00:35:10.873Z,45.45
2019-01-23T00:37:38.176Z,46.50
2019-01-23T00:40:07.125Z,48.78
2019-01-23T00:42:34.498Z,46.00
2019-01-23T00:45:01.823Z,45.80
2019-01-23T00:47:29.113Z,48.25
2019-01-23T00:49:56.423Z,47.65
2019-01-23T00:52:23.751Z,43.17
2019-01-23T00:54:51.043Z,44.77
2019-01-23T00:57:18.342Z,42.43
2019-01-23T00:59:45.675Z,46.50
2019-01-23T01:02:12.970Z,45.48
2019-01-23T01:04:40.274Z,43.40
2019-01-23T01:07:07.589Z,46.45
2019-01-23T01:09:34.886Z,41.75
2019-01-23T01:12:02.203Z,45.60
2019-01-23T01:14:29.497Z,43.23
2019-01-23T01:16:56.803Z,46.58
2019-01-23T01:19:24.121Z,47.67
2019-01-23T01:21:51.418Z,44.60
2019-01-23T01:24:18.703Z,45.33
2019-01-23T01:26:46.033Z,45.40
2019-01-23T01:29:13.332Z,45.67
2019-01-23T01:31:40.621Z,43.15
2019-01-23T01:34:07.946Z,45.78
2019-01-23T01:36:35.236Z,44.63
2019-01-23T01:39:02.555Z,43.73
2019-01-23T01:41:29.865Z,44.83
2019-01-23T01:43:57.161Z,42.85
2019-01-23T01:46:24.473Z,44.08
2019-01-23T01:48:51.775Z,43.75
2019-01-23T01:51:19.056Z,43.80
2019-01-23T01:53:46.381Z,40.78
2019-01-23T01:56:13.664Z,43.15
2019-01-23T01:58:40.961Z,41.53
2019-01-23T02:01:08.278Z,41.83
2019-01-23T02:03:35.586Z,41.50
2019-01-23T02:06:02.905Z,44.20
2019-01-23T02:08:30.203Z,42.13
2019-01-23T02:10:57.508Z,45.15
2019-01-23T02:13:24.831Z,42.90
2019-01-23T02:15:52.122Z,46.37
2019-01-23T02:18:19.485Z,44.05
2019-01-23T02:20:46.831Z,44.42
2019-01-23T02:23:14.131Z,43.20
2019-01-23T02:25:41.431Z,41.80
2019-01-23T02:28:08.935Z,43.02
2019-01-23T02:30:36.230Z,43.50
2019-01-23T02:33:03.527Z,44.95
2019-01-23T02:35:30.852Z,40.05
2019-01-23T02:37:58.195Z,39.58
2019-01-23T02:40:25.496Z,43.25
2019-01-23T02:42:52.825Z,40.58
2019-01-23T02:45:20.136Z,42.13
2019-01-23T02:47:47.514Z,41.70
2019-01-23T02:50:15.077Z,41.08
2019-01-23T02:52:42.401Z,39.55
2019-01-23T02:55:10.270Z,40.80
2019-01-23T02:57:37.600Z,40.80
2019-01-23T03:00:06.598Z,39.98
2019-01-23T03:02:33.922Z,40.92
2019-01-23T03:05:01.217Z,38.58
2019-01-23T03:07:28.506Z,41.63
2019-01-23T03:09:55.830Z,40.33
2019-01-23T03:12:23.124Z,41.50
2019-01-23T03:14:50.421Z,42.10
2019-01-23T03:17:17.741Z,42.50
2019-01-23T03:19:45.306Z,40.88
2019-01-23T03:22:12.638Z,42.15
2019-01-23T03:24:39.939Z,40.80
2019-01-23T03:27:07.248Z,41.98
2019-01-23T03:29:34.563Z,41.18
2019-01-23T03:32:01.864Z,39.42
2019-01-23T03:34:29.199Z,41.02
2019-01-23T03:36:56.484Z,39.88
2019-01-23T03:39:23.797Z,40.50
2019-01-23T03:41:51.101Z,37.80
2019-01-23T03:44:18.407Z,38.13
2019-01-23T03:46:45.726Z,39.33
2019-01-23T03:49:13.049Z,38.83
2019-01-23T03:51:40.365Z,41.10
2019-01-23T03:54:07.672Z,37.75
2019-01-23T03:56:34.992Z,39.73
2019-01-23T03:59:02.284Z,39.58
2019-01-23T04:01:29.607Z,40.50
2019-01-23T04:03:56.907Z,38.35
2019-01-23T04:06:24.235Z,40.45
2019-01-23T04:08:51.536Z,39.20
2019-01-23T04:11:18.830Z,37.67
2019-01-23T04:13:46.148Z,38.35
2019-01-23T04:16:13.447Z,38.55
2019-01-23T04:18:40.803Z,38.58
2019-01-23T04:21:08.065Z,38.25
2019-01-23T04:23:35.454Z,40.50
2019-01-23T04:26:02.811Z,39.98
2019-01-23T04:28:30.113Z,36.77
2019-01-23T04:30:57.433Z,36.13
2019-01-23T04:33:24.739Z,37.50
2019-01-23T04:35:52.021Z,38.30
2019-01-23T04:38:19.359Z,37.13
2019-01-23T04:40:46.669Z,39.67
2019-01-23T04:43:13.964Z,38.15
2019-01-23T04:45:41.370Z,35.65
2019-01-23T04:48:08.675Z,38.02
2019-01-23T04:50:37.638Z,39.70
2019-01-23T04:53:06.582Z,37.33
2019-01-23T04:55:34.920Z,38.75
2019-01-23T04:58:02.234Z,38.75
2019-01-23T05:00:31.174Z,39.90
2019-01-23T05:02:58.531Z,39.42
2019-01-23T05:05:25.797Z,39.38
2019-01-23T05:07:53.099Z,37.40
2019-01-23T05:10:20.418Z,37.85
2019-01-23T05:12:47.695Z,36.73
2019-01-23T05:15:14.980Z,39.55
2019-01-23T05:17:42.261Z,38.38
2019-01-23T05:20:11.189Z,37.55
2019-01-23T05:22:38.512Z,38.05
2019-01-23T05:25:06.075Z,36.88
2019-01-23T05:27:33.392Z,38.15
2019-01-23T05:30:00.711Z,38.48
2019-01-23T05:32:28.035Z,38.50
2019-01-23T05:34:55.360Z,37.88
2019-01-23T05:37:22.649Z,37.15
2019-01-23T05:39:49.955Z,37.80
2019-01-23T05:42:17.319Z,34.70
2019-01-23T05:44:44.629Z,43.55
2019-01-23T05:47:11.934Z,45.00
2019-01-23T05:49:39.260Z,38.83
2019-01-23T05:52:06.574Z,41.73
2019-01-23T05:54:33.905Z,38.67
2019-01-23T05:57:01.203Z,36.55
2019-01-23T05:59:28.518Z,40.55
2019-01-23T06:01:55.889Z,36.17
2019-01-23T06:04:23.311Z,39.80
2019-01-23T06:06:50.624Z,38.92
2019-01-23T06:09:17.933Z,37.30
2019-01-23T06:11:45.335Z,38.98
2019-01-23T06:14:12.623Z,38.38
2019-01-23T06:16:39.959Z,39.40
2019-01-23T06:19:07.252Z,38.08
2019-01-23T06:21:34.550Z,38.42
2019-01-23T06:24:01.865Z,39.25
2019-01-23T06:26:29.157Z,37.63
2019-01-23T06:28:56.455Z,38.73
2019-01-23T06:31:23.769Z,39.92
2019-01-23T06:33:51.071Z,38.40
2019-01-23T06:36:18.393Z,39.33
2019-01-23T06:38:45.704Z,41.33
2019-01-23T06:41:13.005Z,42.93
2019-01-23T06:43:40.313Z,42.45
2019-01-23T06:46:07.636Z,44.03
2019-01-23T06:48:34.951Z,45.75
2019-01-23T06:51:02.250Z,42.98
2019-01-23T06:53:29.566Z,41.88
2019-01-23T06:55:56.872Z,44.63
2019-01-23T06:58:24.171Z,44.83
2019-01-23T07:00:51.505Z,42.93
2019-01-23T07:03:18.826Z,44.88
2019-01-23T07:05:46.116Z,43.08
2019-01-23T07:08:13.492Z,45.83
2019-01-23T07:10:40.806Z,45.48
2019-01-23T07:13:08.101Z,43.58
2019-01-23T07:15:35.410Z,45.30
2019-01-23T07:18:02.734Z,43.02
2019-01-23T07:20:30.035Z,43.92
2019-01-23T07:22:57.354Z,40.33
2019-01-23T07:25:24.660Z,43.52
2019-01-23T07:27:51.974Z,42.17
2019-01-23T07:30:24.323Z,41.13
2019-01-23T07:32:49.509Z,44.50
2019-01-23T07:35:16.806Z,43.60
2019-01-23T07:37:44.130Z,41.40
2019-01-23T07:40:11.445Z,41.92
2019-01-23T07:42:38.733Z,45.00
2019-01-23T07:45:07.755Z,45.28
2019-01-23T07:47:35.021Z,45.15
2019-01-23T07:50:02.322Z,43.50
2019-01-23T07:52:29.636Z,42.15
2019-01-23T07:54:56.948Z,44.20
2019-01-23T07:57:24.266Z,44.20
2019-01-23T07:59:51.559Z,41.15
2019-01-23T08:02:18.933Z,44.50
2019-01-23T08:04:46.274Z,42.70
2019-01-23T08:07:13.569Z,43.05
2019-01-23T08:09:40.866Z,42.73
2019-01-23T08:12:10.777Z,46.50
2019-01-23T08:14:37.126Z,46.70
2019-01-23T08:17:04.484Z,44.38
2019-01-23T08:19:31.778Z,50.00
2019-01-23T08:21:59.069Z,42.50
2019-01-23T08:24:26.395Z,43.38
2019-01-23T08:26:53.698Z,45.70
2019-01-23T08:29:20.998Z,43.68
2019-01-23T08:31:48.322Z,43.30
2019-01-23T08:34:15.615Z,39.55
2019-01-23T08:36:42.938Z,45.65
2019-01-23T08:39:10.234Z,44.38
2019-01-23T08:41:37.550Z,45.43
2019-01-23T08:44:04.875Z,48.05
2019-01-23T08:46:32.174Z,42.45
2019-01-23T08:48:59.488Z,44.53
2019-01-23T08:51:26.779Z,43.20
2019-01-23T08:53:54.111Z,44.63
2019-01-23T08:56:21.406Z,44.63
2019-01-23T08:58:48.792Z,46.60
2019-01-23T09:01:16.114Z,45.65
2019-01-23T09:03:43.425Z,43.05
2019-01-23T09:06:10.744Z,44.58
2019-01-23T09:08:38.058Z,44.30
2019-01-23T09:11:05.370Z,45.92
2019-01-23T09:13:32.660Z,44.88
2019-01-23T09:15:59.987Z,45.12
2019-01-23T09:18:27.295Z,49.67
2019-01-23T09:20:54.611Z,45.00
2019-01-23T09:23:21.905Z,44.40
2019-01-23T09:25:49.789Z,45.43
2019-01-23T09:28:18.024Z,45.90
2019-01-23T09:30:52.943Z,46.20
2019-01-23T09:33:20.704Z,46.30
2019-01-23T09:35:49.625Z,44.73
2019-01-23T09:38:21.593Z,47.55
2019-01-23T09:40:50.532Z,48.17
2019-01-23T09:43:25.551Z,47.67
2019-01-23T09:45:54.496Z,45.33
2019-01-23T09:48:29.390Z,44.85
2019-01-23T09:50:58.309Z,49.45
2019-01-23T09:53:27.254Z,46.25
2019-01-23T09:55:54.636Z,48.73
2019-01-23T09:58:21.914Z,46.18
2019-01-23T10:00:49.210Z,49.40
2019-01-23T10:03:22.785Z,45.25
2019-01-23T10:05:45.507Z,46.08
2019-01-23T10:08:12.831Z,48.78
2019-01-23T10:10:40.147Z,50.15
2019-01-23T10:13:07.465Z,46.33
2019-01-23T10:15:36.534Z,47.48
2019-01-23T10:18:03.851Z,47.53
2019-01-23T10:20:31.180Z,47.83
2019-01-23T10:22:58.491Z,49.48
2019-01-23T10:25:25.896Z,50.80
2019-01-23T10:27:53.224Z,51.20
2019-01-23T10:30:20.531Z,53.23
2019-01-23T10:32:47.829Z,57.00
2019-01-23T10:35:16.786Z,51.35
2019-01-23T10:37:44.086Z,52.08
2019-01-23T10:40:12.874Z,51.40
2019-01-23T10:42:40.177Z,51.00
2019-01-23T10:45:08.975Z,52.33
2019-01-23T10:47:36.283Z,52.58
2019-01-23T10:50:04.886Z,51.85
2019-01-23T10:52:32.244Z,53.33
2019-01-23T10:54:59.537Z,52.75
2019-01-23T10:57:26.839Z,52.50
2019-01-23T10:59:54.138Z,53.87
2019-01-23T11:02:21.438Z,53.58
2019-01-23T11:04:48.755Z,52.83
2019-01-23T11:07:16.053Z,52.45
2019-01-23T11:09:43.354Z,52.48
2019-01-23T11:12:10.666Z,52.58
2019-01-23T11:14:37.952Z,53.83
2019-01-23T11:17:05.263Z,51.83
2019-01-23T11:19:32.573Z,50.33
2019-01-23T11:21:59.910Z,48.87
2019-01-23T11:24:27.161Z,51.20
2019-01-23T11:26:54.487Z,53.10
2019-01-23T11:29:22.869Z,53.13
2019-01-23T11:31:50.191Z,58.28
2019-01-23T11:34:17.482Z,52.93
2019-01-23T11:36:44.805Z,57.03
2019-01-23T11:39:12.111Z,51.58
2019-01-23T11:41:39.424Z,50.33
2019-01-23T11:44:06.740Z,51.75
2019-01-23T11:46:34.041Z,49.75
2019-01-23T11:49:01.351Z,48.38
2019-01-23T11:51:29.061Z,51.90
2019-01-23T11:53:56.609Z,55.15
2019-01-23T11:56:24.001Z,47.75
2019-01-23T11:58:51.325Z,51.23
2019-01-23T12:01:18.628Z,52.05
2019-01-23T12:03:45.923Z,52.75
2019-01-23T12:06:13.494Z,49.20
2019-01-23T12:08:40.814Z,52.55
2019-01-23T12:11:08.381Z,52.73
2019-01-23T12:13:35.831Z,52.05
2019-01-23T12:16:03.129Z,50.30
2019-01-23T12:18:30.477Z,50.10
2019-01-23T12:20:57.793Z,54.33
2019-01-23T12:23:25.085Z,52.67
2019-01-23T12:25:52.410Z,51.50
2019-01-23T12:28:19.744Z,57.10
2019-01-23T12:30:47.028Z,58.17
2019-01-23T12:33:14.317Z,56.08
2019-01-23T12:35:41.642Z,52.45
2019-01-23T12:38:08.936Z,48.70
2019-01-23T12:40:36.256Z,51.83
2019-01-23T12:43:03.587Z,54.13
2019-01-23T12:45:30.890Z,53.65
2019-01-23T12:47:58.181Z,50.60
2019-01-23T12:50:26.677Z,52.50
2019-01-23T12:52:53.970Z,49.40
2019-01-23T12:55:21.279Z,54.40
2019-01-23T12:57:48.597Z,47.93
2019-01-23T13:00:17.593Z,49.18
2019-01-23T13:02:44.896Z,50.52
2019-01-23T13:05:12.688Z,53.95
2019-01-23T13:07:40.010Z,48.87
2019-01-23T13:10:08.955Z,53.60
2019-01-23T13:12:36.275Z,52.20
2019-01-23T13:15:05.267Z,49.90
2019-01-23T13:17:32.652Z,47.17
2019-01-23T13:19:59.943Z,49.95
2019-01-23T13:22:27.315Z,50.80
2019-01-23T13:24:54.587Z,51.40
2019-01-23T13:27:21.889Z,50.43
2019-01-23T13:29:49.213Z,50.00
2019-01-23T13:32:16.524Z,50.08
2019-01-23T13:34:43.809Z,49.25
2019-01-23T13:37:11.133Z,48.80
2019-01-23T13:39:38.431Z,50.17
2019-01-23T13:42:05.724Z,49.15
2019-01-23T13:44:33.046Z,48.65
2019-01-23T13:47:00.380Z,50.65
2019-01-23T13:49:27.672Z,47.83
2019-01-23T13:51:54.969Z,48.85
2019-01-23T13:54:22.285Z,51.08
2019-01-23T13:56:49.572Z,50.58
2019-01-23T13:59:16.938Z,48.28
2019-01-23T14:01:44.247Z,48.45
2019-01-23T14:04:11.566Z,50.20
2019-01-23T14:06:38.875Z,48.68
2019-01-23T14:09:06.552Z,49.13
2019-01-23T14:11:33.886Z,49.27
2019-01-23T14:14:01.188Z,50.98
2019-01-23T14:16:28.512Z,51.55
2019-01-23T14:18:55.834Z,52.78
2019-01-23T14:21:23.140Z,50.55
2019-01-23T14:23:50.448Z,53.30
2019-01-23T14:26:17.818Z,51.95
2019-01-23T14:28:45.103Z,50.70
2019-01-23T14:31:12.409Z,48.45
2019-01-23T14:33:39.802Z,44.85
2019-01-23T14:36:07.106Z,47.58
2019-01-23T14:38:34.427Z,44.83
2019-01-23T14:41:01.718Z,46.37
2019-01-23T14:43:29.028Z,45.48
2019-01-23T14:45:56.342Z,48.17
2019-01-23T14:48:23.673Z,46.77
2019-01-23T14:50:50.961Z,46.58
2019-01-23T14:53:18.275Z,48.30
2019-01-23T14:55:45.560Z,50.63
2019-01-23T14:58:12.892Z,49.33
2019-01-23T15:00:40.177Z,45.78
2019-01-23T15:03:07.492Z,45.52
2019-01-23T15:05:34.796Z,44.42
2019-01-23T15:08:02.091Z,45.40
2019-01-23T15:10:30.374Z,49.40
2019-01-23T15:12:57.701Z,52.48
2019-01-23T15:15:25.016Z,43.70
2019-01-23T15:17:52.703Z,39.58
2019-01-23T15:20:21.274Z,45.12
2019-01-23T15:22:48.574Z,48.58
2019-01-23T15:25:15.880Z,45.33
2019-01-23T15:27:43.193Z,46.63
2019-01-23T15:30:12.145Z,46.98
2019-01-23T15:32:39.438Z,44.98
2019-01-23T15:35:07.804Z,44.95
2019-01-23T15:37:35.122Z,48.38
2019-01-23T15:40:02.419Z,45.92
2019-01-23T15:42:29.727Z,44.80
2019-01-23T15:44:57.075Z,47.75
2019-01-23T15:47:24.365Z,48.90
2019-01-23T15:49:51.676Z,52.38
2019-01-23T15:52:19.339Z,44.93
2019-01-23T15:54:46.659Z,46.45
2019-01-23T15:57:13.959Z,45.03
2019-01-23T15:59:41.290Z,47.40
2019-01-23T16:02:08.611Z,50.48
2019-01-23T16:04:35.900Z,46.05
2019-01-23T16:07:03.229Z,47.15
2019-01-23T16:09:30.550Z,45.90
2019-01-23T16:11:57.983Z,45.17
2019-01-23T16:14:25.266Z,44.95
2019-01-23T16:16:52.648Z,44.27
2019-01-23T16:19:19.889Z,43.33
2019-01-23T16:21:47.219Z,44.80
2019-01-23T16:24:14.549Z,45.28
2019-01-23T16:26:41.847Z,44.18
2019-01-23T16:29:09.173Z,44.20
2019-01-23T16:31:36.472Z,45.67
2019-01-23T16:34:03.777Z,45.23
2019-01-23T16:36:31.109Z,46.25
2019-01-23T16:38:58.406Z,44.73
2019-01-23T16:41:25.694Z,42.00
2019-01-23T16:43:53.029Z,43.38
2019-01-23T16:46:20.327Z,42.85
2019-01-23T16:48:47.650Z,44.73
2019-01-23T16:51:14.945Z,43.20
2019-01-23T16:53:42.248Z,43.20
2019-01-23T16:56:09.604Z,46.33
2019-01-23T16:58:36.900Z,44.33
2019-01-23T17:01:04.205Z,45.25
2019-01-23T17:03:31.588Z,48.48
2019-01-23T17:05:58.886Z,46.02
2019-01-23T17:08:26.200Z,47.08
2019-01-23T17:10:53.490Z,44.83
2019-01-23T17:13:20.863Z,47.25
2019-01-23T17:15:48.175Z,46.05
2019-01-23T17:18:15.476Z,44.88
2019-01-23T17:20:43.464Z,45.33
2019-01-23T17:23:10.756Z,49.80
2019-01-23T17:25:38.059Z,49.23
2019-01-23T17:28:06.055Z,47.65
2019-01-23T17:30:33.361Z,48.05
2019-01-23T17:33:00.649Z,49.25
2019-01-23T17:35:27.969Z,47.83
2019-01-23T17:37:55.275Z,49.27
2019-01-23T17:40:23.349Z,49.10
2019-01-23T17:42:50.673Z,46.50
2019-01-23T17:45:22.717Z,46.58
2019-01-23T17:47:50.108Z,49.38
2019-01-23T17:50:18.384Z,47.67
2019-01-23T17:52:45.679Z,48.85
2019-01-23T17:55:14.722Z,47.70
2019-01-23T17:57:42.023Z,45.95
2019-01-23T18:00:10.983Z,46.10
2019-01-23T18:02:38.304Z,46.23
2019-01-23T18:05:05.874Z,47.83
2019-01-23T18:07:33.198Z,47.65
2019-01-23T18:10:00.521Z,48.15
2019-01-23T18:12:27.801Z,48.90
2019-01-23T18:14:55.127Z,48.95
2019-01-23T18:17:22.424Z,50.08
2019-01-23T18:19:49.705Z,50.30
2019-01-23T18:22:17.023Z,49.60
2019-01-23T18:24:44.336Z,51.02
2019-01-23T18:27:11.815Z,52.50
2019-01-23T18:29:39.274Z,52.90
2019-01-23T18:32:06.599Z,50.15
2019-01-23T18:34:38.445Z,50.73
2019-01-23T18:37:10.527Z,51.05
2019-01-23T18:39:42.143Z,53.00
2019-01-23T18:42:17.377Z,51.70
2019-01-23T18:44:46.301Z,52.30
2019-01-23T18:47:18.094Z,54.63
2019-01-23T18:49:47.041Z,53.40
2019-01-23T18:52:15.347Z,51.73
2019-01-23T18:54:43.214Z,53.15
2019-01-23T18:57:12.152Z,52.35
2019-01-23T18:59:39.477Z,53.23
2019-01-23T19:02:06.831Z,52.05
2019-01-23T19:04:34.121Z,53.73
2019-01-23T19:07:01.450Z,54.23
2019-01-23T19:09:28.755Z,55.25
2019-01-23T19:11:56.048Z,54.08
2019-01-23T19:14:24.584Z,54.08
2019-01-23T19:16:52.084Z,53.30
2019-01-23T19:19:19.377Z,50.73
2019-01-23T19:21:46.697Z,56.05
2019-01-23T19:24:14.002Z,56.37
2019-01-23T19:26:41.331Z,56.53
2019-01-23T19:29:08.636Z,55.75
2019-01-23T19:31:35.940Z,56.77
2019-01-23T19:34:03.264Z,56.08
2019-01-23T19:36:30.590Z,54.98
2019-01-23T19:38:57.877Z,55.33
2019-01-23T19:41:25.207Z,51.80
2019-01-23T19:43:52.502Z,54.88
2019-01-23T19:46:19.803Z,58.02
2019-01-23T19:48:47.199Z,56.50
2019-01-23T19:51:14.535Z,55.88
2019-01-23T19:53:41.841Z,56.65
2019-01-23T19:56:09.163Z,54.00
2019-01-23T19:58:36.522Z,55.92
2019-01-23T20:01:04.071Z,56.53
2019-01-23T20:03:31.369Z,58.00
2019-01-23T20:05:58.685Z,54.08
2019-01-23T20:08:25.984Z,55.85
2019-01-23T20:10:53.302Z,56.35
2019-01-23T20:13:20.607Z,58.02
2019-01-23T20:15:47.931Z,54.10
2019-01-23T20:18:15.217Z,54.53
2019-01-23T20:20:42.526Z,56.75
2019-01-23T20:23:09.842Z,55.28
2019-01-23T20:25:37.125Z,53.25
2019-01-23T20:28:04.421Z,53.68
2019-01-23T20:30:32.919Z,55.80
2019-01-23T20:33:00.209Z,51.75
2019-01-23T20:35:27.506Z,50.58
2019-01-23T20:37:54.826Z,51.98
2019-01-23T20:40:22.126Z,50.67
2019-01-23T20:42:49.595Z,53.52
2019-01-23T20:45:16.927Z,52.83
2019-01-23T20:47:44.230Z,50.75
2019-01-23T20:50:13.164Z,52.75
2019-01-23T20:52:40.479Z,51.70
2019-01-23T20:55:07.787Z,51.25
2019-01-23T20:57:35.077Z,51.53
2019-01-23T21:00:02.583Z,53.17
2019-01-23T21:02:29.884Z,52.13
2019-01-23T21:04:57.203Z,53.85
2019-01-23T21:07:24.516Z,53.23
2019-01-23T21:09:51.822Z,50.00
2019-01-23T21:12:19.145Z,51.25
2019-01-23T21:14:46.437Z,52.17
2019-01-23T21:17:13.737Z,50.58
2019-01-23T21:19:41.058Z,49.98
2019-01-23T21:22:08.358Z,50.43
2019-01-23T21:24:35.672Z,49.15
2019-01-23T21:27:02.965Z,48.55
2019-01-23T21:29:30.260Z,50.00
2019-01-23T21:31:57.599Z,52.67
2019-01-23T21:34:24.895Z,49.77
2019-01-23T21:36:52.190Z,49.08
2019-01-23T21:39:19.518Z,48.15
2019-01-23T21:41:46.837Z,44.98
2019-01-23T21:44:14.142Z,46.20
2019-01-23T21:46:41.428Z,49.67
2019-01-23T21:49:08.770Z,47.98
2019-01-23T21:51:36.068Z,48.52
2019-01-23T21:54:03.395Z,48.50
2019-01-23T21:56:30.685Z,49.40
2019-01-23T21:58:57.980Z,49.53
2019-01-23T22:01:25.313Z,49.15
2019-01-23T22:03:52.609Z,49.08
2019-01-23T22:06:19.906Z,49.98
2019-01-23T22:08:47.238Z,51.58
2019-01-23T22:11:14.533Z,50.75
2019-01-23T22:13:41.834Z,52.15
2019-01-23T22:16:09.167Z,50.55
2019-01-23T22:18:36.476Z,48.70
2019-01-23T22:21:03.793Z,50.38
2019-01-23T22:23:31.109Z,48.25
2019-01-23T22:25:58.450Z,50.20
2019-01-23T22:28:25.752Z,52.73
2019-01-23T22:30:53.044Z,51.63
2019-01-23T22:33:20.374Z,51.40
2019-01-23T22:35:47.674Z,53.85
2019-01-23T22:38:15.041Z,51.30
2019-01-23T22:40:42.357Z,52.53
2019-01-23T22:43:14.949Z,49.42
2019-01-23T22:45:38.623Z,48.42
2019-01-23T22:48:05.945Z,51.35
2019-01-23T22:50:33.226Z,51.70
2019-01-23T22:53:00.522Z,48.02
2019-01-23T22:55:27.851Z,53.63
2019-01-23T22:57:55.155Z,51.68
2019-01-23T23:00:34.926Z,50.23
2019-01-23T23:03:03.092Z,49.53
2019-01-23T23:05:30.932Z,52.73
2019-01-23T23:07:58.270Z,52.23
2019-01-23T23:10:25.566Z,49.70
2019-01-23T23:12:52.875Z,50.33
2019-01-23T23:15:20.198Z,47.83
2019-01-23T23:17:47.515Z,49.23
2019-01-23T23:20:14.850Z,47.50
2019-01-23T23:22:42.160Z,47.33
2019-01-23T23:25:09.665Z,49.27
2019-01-23T23:27:39.506Z,50.88
2019-01-23T23:30:10.607Z,49.18
2019-01-23T23:32:37.997Z,50.70
2019-01-23T23:35:05.933Z,49.50
2019-01-23T23:37:33.225Z,51.73
2019-01-23T23:40:00.550Z,52.13
2019-01-23T23:42:27.852Z,51.53
2019-01-23T23:44:55.149Z,52.33
2019-01-23T23:47:22.680Z,49.58
2019-01-23T23:49:50.067Z,51.53
2019-01-23T23:52:17.422Z,51.25
2019-01-23T23:54:44.714Z,49.35
2019-01-23T23:57:12.021Z,52.03
2019-01-23T23:59:39.336Z,51.08
